sensor_id;sensor_type;location;lat;lon;timestamp;P1;durP1;ratioP1;P2;durP2;ratioP2
42096;SDS011;27754;45.414;11.084;2022-09-14T00:01:19;8.82;;;6.80;;
42096;SDS011;27754;45.414;11.084;2022-09-14T00:04:14;9.65;;;7.05;;
42096;SDS011;27754;45.414;11.084;2022-09-14T00:06:41;11.07;;;7.70;;
42096;SDS011;27754;45.414;11.084;2022-09-14T00:09:16;11.30;;;8.13;;
42096;SDS011;27754;45.414;11.084;2022-09-14T00:11:45;10.27;;;7.47;;
42096;SDS011;27754;45.414;11.084;2022-09-14T00:14:12;10.82;;;8.10;;
42096;SDS011;27754;45.414;11.084;2022-09-14T00:16:40;8.90;;;7.25;;
42096;SDS011;27754;45.414;11.084;2022-09-14T00:19:15;15.50;;;8.43;;
42096;SDS011;27754;45.414;11.084;2022-09-14T00:21:53;13.65;;;8.32;;
42096;SDS011;27754;45.414;11.084;2022-09-14T00:24:22;8.98;;;8.10;;
42096;SDS011;27754;45.414;11.084;2022-09-14T00:26:51;12.30;;;8.20;;
42096;SDS011;27754;45.414;11.084;2022-09-14T00:29:18;13.00;;;8.52;;
42096;SDS011;27754;45.414;11.084;2022-09-14T00:31:45;12.70;;;7.65;;
42096;SDS011;27754;45.414;11.084;2022-09-14T00:34:13;10.82;;;7.97;;
42096;SDS011;27754;45.414;11.084;2022-09-14T00:36:44;12.13;;;8.05;;
42096;SDS011;27754;45.414;11.084;2022-09-14T00:39:13;8.73;;;7.53;;
42096;SDS011;27754;45.414;11.084;2022-09-14T00:41:42;11.30;;;7.35;;
42096;SDS011;27754;45.414;11.084;2022-09-14T00:46:39;12.40;;;7.93;;
42096;SDS011;27754;45.414;11.084;2022-09-14T00:49:12;15.57;;;7.85;;
42096;SDS011;27754;45.414;11.084;2022-09-14T00:51:46;8.88;;;7.65;;
42096;SDS011;27754;45.414;11.084;2022-09-14T00:54:19;11.65;;;7.97;;
42096;SDS011;27754;45.414;11.084;2022-09-14T00:56:46;13.18;;;8.65;;
42096;SDS011;27754;45.414;11.084;2022-09-14T00:59:15;12.07;;;8.13;;
42096;SDS011;27754;45.414;11.084;2022-09-14T01:01:47;8.60;;;7.60;;
42096;SDS011;27754;45.414;11.084;2022-09-14T01:04:15;10.32;;;7.45;;
42096;SDS011;27754;45.414;11.084;2022-09-14T01:09:27;9.90;;;7.53;;
42096;SDS011;27754;45.414;11.084;2022-09-14T01:15:05;8.82;;;7.32;;
42096;SDS011;27754;45.414;11.084;2022-09-14T01:17:50;11.60;;;7.40;;
42096;SDS011;27754;45.414;11.084;2022-09-14T01:21:13;11.10;;;7.20;;
42096;SDS011;27754;45.414;11.084;2022-09-14T01:29:08;11.15;;;7.82;;
42096;SDS011;27754;45.414;11.084;2022-09-14T01:34:21;12.10;;;7.55;;
42096;SDS011;27754;45.414;11.084;2022-09-14T01:37:10;9.18;;;7.45;;
42096;SDS011;27754;45.414;11.084;2022-09-14T01:39:44;11.45;;;7.10;;
42096;SDS011;27754;45.414;11.084;2022-09-14T01:42:14;12.80;;;7.13;;
42096;SDS011;27754;45.414;11.084;2022-09-14T01:44:46;10.35;;;6.50;;
42096;SDS011;27754;45.414;11.084;2022-09-14T01:47:18;10.98;;;6.93;;
42096;SDS011;27754;45.414;11.084;2022-09-14T01:49:52;8.23;;;6.68;;
42096;SDS011;27754;45.414;11.084;2022-09-14T01:52:26;7.68;;;6.70;;
42096;SDS011;27754;45.414;11.084;2022-09-14T01:55:23;9.05;;;7.30;;
42096;SDS011;27754;45.414;11.084;2022-09-14T01:58:03;9.27;;;7.00;;
42096;SDS011;27754;45.414;11.084;2022-09-14T02:00:58;11.25;;;7.22;;
42096;SDS011;27754;45.414;11.084;2022-09-14T02:03:29;9.60;;;7.25;;
42096;SDS011;27754;45.414;11.084;2022-09-14T02:06:07;9.35;;;7.43;;
42096;SDS011;27754;45.414;11.084;2022-09-14T02:08:54;9.43;;;8.43;;
42096;SDS011;27754;45.414;11.084;2022-09-14T02:11:21;10.85;;;8.48;;
42096;SDS011;27754;45.414;11.084;2022-09-14T02:13:48;10.80;;;7.88;;
42096;SDS011;27754;45.414;11.084;2022-09-14T02:16:15;9.10;;;7.72;;
42096;SDS011;27754;45.414;11.084;2022-09-14T02:18:43;12.55;;;7.38;;
42096;SDS011;27754;45.414;11.084;2022-09-14T02:21:32;10.50;;;6.15;;
42096;SDS011;27754;45.414;11.084;2022-09-14T02:23:58;7.32;;;5.43;;
42096;SDS011;27754;45.414;11.084;2022-09-14T02:26:26;5.88;;;4.18;;
42096;SDS011;27754;45.414;11.084;2022-09-14T02:28:54;8.43;;;4.70;;
42096;SDS011;27754;45.414;11.084;2022-09-14T02:31:43;5.50;;;4.80;;
42096;SDS011;27754;45.414;11.084;2022-09-14T02:34:27;8.10;;;4.25;;
42096;SDS011;27754;45.414;11.084;2022-09-14T02:37:00;5.65;;;4.13;;
42096;SDS011;27754;45.414;11.084;2022-09-14T02:39:43;5.53;;;3.40;;
42096;SDS011;27754;45.414;11.084;2022-09-14T02:42:36;4.80;;;3.22;;
42096;SDS011;27754;45.414;11.084;2022-09-14T02:48:05;5.88;;;2.92;;
42096;SDS011;27754;45.414;11.084;2022-09-14T02:51:41;4.22;;;3.13;;
42096;SDS011;27754;45.414;11.084;2022-09-14T02:56:34;5.97;;;2.78;;
42096;SDS011;27754;45.414;11.084;2022-09-14T02:59:02;5.00;;;4.22;;
42096;SDS011;27754;45.414;11.084;2022-09-14T03:01:30;7.63;;;6.00;;
42096;SDS011;27754;45.414;11.084;2022-09-14T03:03:57;6.70;;;6.03;;
42096;SDS011;27754;45.414;11.084;2022-09-14T03:06:24;7.68;;;6.32;;
42096;SDS011;27754;45.414;11.084;2022-09-14T03:08:51;8.30;;;6.40;;
42096;SDS011;27754;45.414;11.084;2022-09-14T03:11:18;11.35;;;6.85;;
42096;SDS011;27754;45.414;11.084;2022-09-14T03:13:45;10.57;;;6.90;;
42096;SDS011;27754;45.414;11.084;2022-09-14T03:16:13;7.22;;;6.53;;
42096;SDS011;27754;45.414;11.084;2022-09-14T03:18:41;10.45;;;7.70;;
42096;SDS011;27754;45.414;11.084;2022-09-14T03:21:12;10.43;;;7.93;;
42096;SDS011;27754;45.414;11.084;2022-09-14T03:23:42;8.50;;;7.63;;
42096;SDS011;27754;45.414;11.084;2022-09-14T03:26:16;13.05;;;8.07;;
42096;SDS011;27754;45.414;11.084;2022-09-14T03:28:48;8.50;;;7.32;;
42096;SDS011;27754;45.414;11.084;2022-09-14T03:31:17;10.77;;;7.82;;
42096;SDS011;27754;45.414;11.084;2022-09-14T03:33:44;12.50;;;10.60;;
42096;SDS011;27754;45.414;11.084;2022-09-14T03:36:20;15.27;;;13.00;;
42096;SDS011;27754;45.414;11.084;2022-09-14T03:38:49;13.85;;;12.40;;
42096;SDS011;27754;45.414;11.084;2022-09-14T03:41:18;17.95;;;12.65;;
42096;SDS011;27754;45.414;11.084;2022-09-14T03:43:46;15.75;;;13.10;;
42096;SDS011;27754;45.414;11.084;2022-09-14T03:46:14;18.40;;;14.05;;
42096;SDS011;27754;45.414;11.084;2022-09-14T03:48:43;16.85;;;13.90;;
42096;SDS011;27754;45.414;11.084;2022-09-14T03:51:11;18.98;;;13.90;;
42096;SDS011;27754;45.414;11.084;2022-09-14T03:53:39;16.85;;;13.13;;
42096;SDS011;27754;45.414;11.084;2022-09-14T03:56:07;16.17;;;13.07;;
42096;SDS011;27754;45.414;11.084;2022-09-14T03:58:36;16.85;;;13.00;;
42096;SDS011;27754;45.414;11.084;2022-09-14T04:01:07;14.93;;;12.85;;
42096;SDS011;27754;45.414;11.084;2022-09-14T04:03:36;13.02;;;11.57;;
42096;SDS011;27754;45.414;11.084;2022-09-14T04:06:03;17.73;;;13.23;;
42096;SDS011;27754;45.414;11.084;2022-09-14T04:08:31;15.68;;;12.82;;
42096;SDS011;27754;45.414;11.084;2022-09-14T04:11:00;15.57;;;12.70;;
42096;SDS011;27754;45.414;11.084;2022-09-14T04:13:33;17.55;;;13.00;;
42096;SDS011;27754;45.414;11.084;2022-09-14T04:16:00;16.50;;;13.95;;
42096;SDS011;27754;45.414;11.084;2022-09-14T04:18:27;16.55;;;12.35;;
42096;SDS011;27754;45.414;11.084;2022-09-14T04:20:58;15.07;;;12.02;;
42096;SDS011;27754;45.414;11.084;2022-09-14T04:23:33;12.55;;;11.25;;
42096;SDS011;27754;45.414;11.084;2022-09-14T04:26:21;14.82;;;12.40;;
42096;SDS011;27754;45.414;11.084;2022-09-14T04:28:49;15.23;;;12.20;;
42096;SDS011;27754;45.414;11.084;2022-09-14T04:31:16;13.82;;;12.52;;
42096;SDS011;27754;45.414;11.084;2022-09-14T04:33:43;19.48;;;12.77;;
42096;SDS011;27754;45.414;11.084;2022-09-14T04:36:12;12.43;;;11.13;;
42096;SDS011;27754;45.414;11.084;2022-09-14T04:38:40;13.30;;;11.27;;
42096;SDS011;27754;45.414;11.084;2022-09-14T04:41:09;17.08;;;12.63;;
42096;SDS011;27754;45.414;11.084;2022-09-14T04:43:38;18.90;;;14.07;;
42096;SDS011;27754;45.414;11.084;2022-09-14T04:46:10;17.77;;;12.68;;
42096;SDS011;27754;45.414;11.084;2022-09-14T04:48:38;17.33;;;13.25;;
42096;SDS011;27754;45.414;11.084;2022-09-14T04:51:15;17.15;;;12.88;;
42096;SDS011;27754;45.414;11.084;2022-09-14T04:53:45;15.75;;;13.35;;
42096;SDS011;27754;45.414;11.084;2022-09-14T04:56:15;16.95;;;12.20;;
42096;SDS011;27754;45.414;11.084;2022-09-14T04:58:44;15.32;;;12.10;;
42096;SDS011;27754;45.414;11.084;2022-09-14T05:01:18;13.88;;;11.43;;
42096;SDS011;27754;45.414;11.084;2022-09-14T05:03:46;11.60;;;10.38;;
42096;SDS011;27754;45.414;11.084;2022-09-14T05:06:15;12.55;;;9.65;;
42096;SDS011;27754;45.414;11.084;2022-09-14T05:08:46;14.60;;;10.55;;
42096;SDS011;27754;45.414;11.084;2022-09-14T05:11:15;11.23;;;10.13;;
42096;SDS011;27754;45.414;11.084;2022-09-14T05:13:44;9.90;;;8.90;;
42096;SDS011;27754;45.414;11.084;2022-09-14T05:16:23;13.30;;;8.63;;
42096;SDS011;27754;45.414;11.084;2022-09-14T05:18:58;12.13;;;9.50;;
42096;SDS011;27754;45.414;11.084;2022-09-14T05:21:27;14.20;;;9.93;;
42096;SDS011;27754;45.414;11.084;2022-09-14T05:23:57;10.93;;;9.77;;
42096;SDS011;27754;45.414;11.084;2022-09-14T05:26:26;12.27;;;10.85;;
42096;SDS011;27754;45.414;11.084;2022-09-14T05:28:55;17.80;;;10.10;;
42096;SDS011;27754;45.414;11.084;2022-09-14T05:31:23;15.00;;;9.98;;
42096;SDS011;27754;45.414;11.084;2022-09-14T05:33:52;13.18;;;10.27;;
42096;SDS011;27754;45.414;11.084;2022-09-14T05:36:20;12.43;;;9.75;;
42096;SDS011;27754;45.414;11.084;2022-09-14T05:38:47;12.10;;;9.98;;
42096;SDS011;27754;45.414;11.084;2022-09-14T05:41:14;11.68;;;9.70;;
42096;SDS011;27754;45.414;11.084;2022-09-14T05:43:42;12.27;;;9.55;;
42096;SDS011;27754;45.414;11.084;2022-09-14T05:46:12;16.02;;;8.95;;
42096;SDS011;27754;45.414;11.084;2022-09-14T05:48:40;10.02;;;8.93;;
42096;SDS011;27754;45.414;11.084;2022-09-14T05:51:16;12.10;;;10.00;;
42096;SDS011;27754;45.414;11.084;2022-09-14T05:53:49;17.15;;;9.88;;
42096;SDS011;27754;45.414;11.084;2022-09-14T05:56:22;25.02;;;10.55;;
42096;SDS011;27754;45.414;11.084;2022-09-14T05:58:51;42.70;;;12.68;;
42096;SDS011;27754;45.414;11.084;2022-09-14T06:01:19;18.20;;;11.23;;
42096;SDS011;27754;45.414;11.084;2022-09-14T06:03:48;13.48;;;10.25;;
42096;SDS011;27754;45.414;11.084;2022-09-14T06:06:16;14.60;;;9.95;;
42096;SDS011;27754;45.414;11.084;2022-09-14T06:08:45;17.38;;;9.55;;
42096;SDS011;27754;45.414;11.084;2022-09-14T06:11:16;10.98;;;8.55;;
42096;SDS011;27754;45.414;11.084;2022-09-14T06:13:45;12.57;;;9.13;;
42096;SDS011;27754;45.414;11.084;2022-09-14T06:16:13;14.60;;;8.40;;
42096;SDS011;27754;45.414;11.084;2022-09-14T06:18:41;14.90;;;8.65;;
42096;SDS011;27754;45.414;11.084;2022-09-14T06:21:10;18.92;;;8.98;;
42096;SDS011;27754;45.414;11.084;2022-09-14T06:23:40;12.60;;;8.40;;
42096;SDS011;27754;45.414;11.084;2022-09-14T06:26:08;15.10;;;8.13;;
42096;SDS011;27754;45.414;11.084;2022-09-14T06:28:35;13.52;;;8.88;;
42096;SDS011;27754;45.414;11.084;2022-09-14T06:31:02;10.20;;;8.00;;
42096;SDS011;27754;45.414;11.084;2022-09-14T06:33:30;11.98;;;8.35;;
42096;SDS011;27754;45.414;11.084;2022-09-14T06:38:27;12.80;;;7.85;;
42096;SDS011;27754;45.414;11.084;2022-09-14T06:40:55;12.48;;;7.30;;
42096;SDS011;27754;45.414;11.084;2022-09-14T06:43:24;11.52;;;6.93;;
42096;SDS011;27754;45.414;11.084;2022-09-14T06:48:26;15.63;;;7.63;;
42096;SDS011;27754;45.414;11.084;2022-09-14T06:50:54;11.93;;;7.63;;
42096;SDS011;27754;45.414;11.084;2022-09-14T06:53:21;12.40;;;8.15;;
42096;SDS011;27754;45.414;11.084;2022-09-14T06:55:49;14.48;;;8.38;;
42096;SDS011;27754;45.414;11.084;2022-09-14T06:58:16;11.45;;;8.57;;
42096;SDS011;27754;45.414;11.084;2022-09-14T07:00:43;15.07;;;7.97;;
42096;SDS011;27754;45.414;11.084;2022-09-14T07:03:10;14.48;;;8.18;;
42096;SDS011;27754;45.414;11.084;2022-09-14T07:05:37;13.55;;;8.93;;
42096;SDS011;27754;45.414;11.084;2022-09-14T07:08:04;10.93;;;8.35;;
42096;SDS011;27754;45.414;11.084;2022-09-14T07:10:37;13.32;;;8.52;;
42096;SDS011;27754;45.414;11.084;2022-09-14T07:13:04;12.27;;;8.35;;
42096;SDS011;27754;45.414;11.084;2022-09-14T07:15:30;14.07;;;8.20;;
42096;SDS011;27754;45.414;11.084;2022-09-14T07:17:58;10.20;;;8.27;;
42096;SDS011;27754;45.414;11.084;2022-09-14T07:20:25;14.20;;;8.10;;
42096;SDS011;27754;45.414;11.084;2022-09-14T07:22:52;13.32;;;8.48;;
42096;SDS011;27754;45.414;11.084;2022-09-14T07:25:19;14.68;;;8.80;;
42096;SDS011;27754;45.414;11.084;2022-09-14T07:27:46;11.43;;;8.10;;
42096;SDS011;27754;45.414;11.084;2022-09-14T07:30:13;11.48;;;8.73;;
42096;SDS011;27754;45.414;11.084;2022-09-14T07:32:40;15.88;;;8.90;;
42096;SDS011;27754;45.414;11.084;2022-09-14T07:35:07;12.60;;;8.82;;
42096;SDS011;27754;45.414;11.084;2022-09-14T07:37:34;17.98;;;9.38;;
42096;SDS011;27754;45.414;11.084;2022-09-14T07:40:01;20.00;;;9.30;;
42096;SDS011;27754;45.414;11.084;2022-09-14T07:42:28;13.35;;;9.40;;
42096;SDS011;27754;45.414;11.084;2022-09-14T07:44:55;14.90;;;10.50;;
42096;SDS011;27754;45.414;11.084;2022-09-14T07:47:21;16.08;;;10.10;;
42096;SDS011;27754;45.414;11.084;2022-09-14T07:49:48;16.05;;;10.20;;
42096;SDS011;27754;45.414;11.084;2022-09-14T07:52:15;12.95;;;11.00;;
42096;SDS011;27754;45.414;11.084;2022-09-14T07:54:42;12.88;;;10.75;;
42096;SDS011;27754;45.414;11.084;2022-09-14T07:57:09;14.15;;;11.75;;
42096;SDS011;27754;45.414;11.084;2022-09-14T07:59:36;14.15;;;11.55;;
42096;SDS011;27754;45.414;11.084;2022-09-14T08:02:04;16.70;;;11.25;;
42096;SDS011;27754;45.414;11.084;2022-09-14T08:04:35;17.25;;;12.60;;
42096;SDS011;27754;45.414;11.084;2022-09-14T08:07:04;16.23;;;11.00;;
42096;SDS011;27754;45.414;11.084;2022-09-14T08:09:31;15.38;;;10.98;;
42096;SDS011;27754;45.414;11.084;2022-09-14T08:11:58;16.80;;;12.18;;
42096;SDS011;27754;45.414;11.084;2022-09-14T08:14:25;19.63;;;11.32;;
42096;SDS011;27754;45.414;11.084;2022-09-14T08:16:52;12.27;;;8.80;;
42096;SDS011;27754;45.414;11.084;2022-09-14T08:19:19;17.48;;;10.07;;
42096;SDS011;27754;45.414;11.084;2022-09-14T08:21:47;9.10;;;5.05;;
42096;SDS011;27754;45.414;11.084;2022-09-14T08:24:15;16.10;;;8.52;;
42096;SDS011;27754;45.414;11.084;2022-09-14T08:26:44;11.10;;;9.10;;
42096;SDS011;27754;45.414;11.084;2022-09-14T08:29:12;12.80;;;9.35;;
42096;SDS011;27754;45.414;11.084;2022-09-14T08:31:40;12.70;;;8.85;;
42096;SDS011;27754;45.414;11.084;2022-09-14T08:34:08;13.80;;;8.55;;
42096;SDS011;27754;45.414;11.084;2022-09-14T08:36:36;15.00;;;8.50;;
42096;SDS011;27754;45.414;11.084;2022-09-14T08:39:05;10.98;;;7.88;;
42096;SDS011;27754;45.414;11.084;2022-09-14T08:41:39;11.75;;;7.18;;
42096;SDS011;27754;45.414;11.084;2022-09-14T08:44:22;10.25;;;6.40;;
42096;SDS011;27754;45.414;11.084;2022-09-14T08:52:39;16.83;;;8.65;;
42096;SDS011;27754;45.414;11.084;2022-09-14T08:57:57;14.25;;;7.82;;
42096;SDS011;27754;45.414;11.084;2022-09-14T09:00:52;14.07;;;8.23;;
42096;SDS011;27754;45.414;11.084;2022-09-14T09:03:32;16.00;;;8.10;;
42096;SDS011;27754;45.414;11.084;2022-09-14T09:12:05;13.05;;;7.28;;
42096;SDS011;27754;45.414;11.084;2022-09-14T09:14:38;17.33;;;7.88;;
42096;SDS011;27754;45.414;11.084;2022-09-14T09:17:10;12.27;;;8.00;;
42096;SDS011;27754;45.414;11.084;2022-09-14T09:19:54;14.57;;;7.82;;
42096;SDS011;27754;45.414;11.084;2022-09-14T09:22:42;9.95;;;6.78;;
42096;SDS011;27754;45.414;11.084;2022-09-14T09:25:23;12.00;;;8.57;;
42096;SDS011;27754;45.414;11.084;2022-09-14T09:27:53;11.95;;;8.32;;
42096;SDS011;27754;45.414;11.084;2022-09-14T09:30:34;11.77;;;7.10;;
42096;SDS011;27754;45.414;11.084;2022-09-14T09:33:01;10.57;;;8.18;;
42096;SDS011;27754;45.414;11.084;2022-09-14T09:35:43;16.00;;;8.80;;
42096;SDS011;27754;45.414;11.084;2022-09-14T09:38:19;12.05;;;9.00;;
42096;SDS011;27754;45.414;11.084;2022-09-14T09:41:00;12.02;;;8.68;;
42096;SDS011;27754;45.414;11.084;2022-09-14T09:43:30;15.38;;;10.10;;
42096;SDS011;27754;45.414;11.084;2022-09-14T09:46:14;13.10;;;9.27;;
42096;SDS011;27754;45.414;11.084;2022-09-14T09:48:43;15.07;;;11.18;;
42096;SDS011;27754;45.414;11.084;2022-09-14T09:51:15;18.95;;;10.93;;
42096;SDS011;27754;45.414;11.084;2022-09-14T09:53:53;16.95;;;11.70;;
42096;SDS011;27754;45.414;11.084;2022-09-14T09:56:24;17.98;;;12.02;;
42096;SDS011;27754;45.414;11.084;2022-09-14T09:58:53;15.50;;;11.40;;
42096;SDS011;27754;45.414;11.084;2022-09-14T10:01:22;15.98;;;9.88;;
42096;SDS011;27754;45.414;11.084;2022-09-14T10:06:43;17.70;;;9.73;;
42096;SDS011;27754;45.414;11.084;2022-09-14T10:09:18;13.23;;;8.18;;
42096;SDS011;27754;45.414;11.084;2022-09-14T10:11:57;14.07;;;9.50;;
42096;SDS011;27754;45.414;11.084;2022-09-14T10:14:32;12.60;;;9.05;;
42096;SDS011;27754;45.414;11.084;2022-09-14T10:17:04;12.32;;;7.82;;
42096;SDS011;27754;45.414;11.084;2022-09-14T10:19:48;15.90;;;9.60;;
42096;SDS011;27754;45.414;11.084;2022-09-14T10:25:02;10.10;;;8.80;;
42096;SDS011;27754;45.414;11.084;2022-09-14T10:27:47;13.25;;;7.15;;
42096;SDS011;27754;45.414;11.084;2022-09-14T10:30:33;12.88;;;7.30;;
42096;SDS011;27754;45.414;11.084;2022-09-14T10:33:22;11.63;;;6.20;;
42096;SDS011;27754;45.414;11.084;2022-09-14T10:36:02;10.63;;;6.57;;
42096;SDS011;27754;45.414;11.084;2022-09-14T10:38:42;11.18;;;7.07;;
42096;SDS011;27754;45.414;11.084;2022-09-14T10:44:16;11.55;;;5.82;;
42096;SDS011;27754;45.414;11.084;2022-09-14T10:50:08;12.13;;;7.18;;
42096;SDS011;27754;45.414;11.084;2022-09-14T10:58:05;8.65;;;5.47;;
42096;SDS011;27754;45.414;11.084;2022-09-14T11:00:55;9.50;;;5.72;;
42096;SDS011;27754;45.414;11.084;2022-09-14T11:06:25;12.30;;;5.60;;
42096;SDS011;27754;45.414;11.084;2022-09-14T11:09:08;11.35;;;5.60;;
42096;SDS011;27754;45.414;11.084;2022-09-14T11:16:55;9.90;;;6.43;;
42096;SDS011;27754;45.414;11.084;2022-09-14T11:19:46;11.93;;;6.43;;
42096;SDS011;27754;45.414;11.084;2022-09-14T11:25:00;8.80;;;4.90;;
42096;SDS011;27754;45.414;11.084;2022-09-14T11:27:41;9.20;;;4.80;;
42096;SDS011;27754;45.414;11.084;2022-09-14T11:30:19;7.63;;;5.47;;
42096;SDS011;27754;45.414;11.084;2022-09-14T11:35:23;10.18;;;5.18;;
42096;SDS011;27754;45.414;11.084;2022-09-14T11:38:34;7.82;;;4.20;;
42096;SDS011;27754;45.414;11.084;2022-09-14T11:43:38;8.80;;;4.07;;
42096;SDS011;27754;45.414;11.084;2022-09-14T11:46:30;6.47;;;3.70;;
42096;SDS011;27754;45.414;11.084;2022-09-14T11:54:24;6.57;;;2.47;;
42096;SDS011;27754;45.414;11.084;2022-09-14T11:56:52;5.70;;;3.10;;
42096;SDS011;27754;45.414;11.084;2022-09-14T12:07:56;6.70;;;2.88;;
42096;SDS011;27754;45.414;11.084;2022-09-14T12:10:20;7.53;;;1.95;;
42096;SDS011;27754;45.414;11.084;2022-09-14T12:25:54;5.63;;;2.00;;
42096;SDS011;27754;45.414;11.084;2022-09-14T12:35:59;6.22;;;1.88;;
42096;SDS011;27754;45.414;11.084;2022-09-14T12:46:36;9.13;;;2.30;;
42096;SDS011;27754;45.414;11.084;2022-09-14T12:49:14;8.88;;;1.90;;
42096;SDS011;27754;45.414;11.084;2022-09-14T12:51:52;7.57;;;2.30;;
42096;SDS011;27754;45.414;11.084;2022-09-14T12:57:15;5.72;;;2.35;;
42096;SDS011;27754;45.414;11.084;2022-09-14T13:05:46;10.73;;;2.13;;
42096;SDS011;27754;45.414;11.084;2022-09-14T13:08:14;7.50;;;2.08;;
42096;SDS011;27754;45.414;11.084;2022-09-14T13:10:46;8.15;;;2.20;;
42096;SDS011;27754;45.414;11.084;2022-09-14T13:13:16;5.20;;;2.00;;
42096;SDS011;27754;45.414;11.084;2022-09-14T13:20:49;8.07;;;2.50;;
42096;SDS011;27754;45.414;11.084;2022-09-14T13:23:20;4.95;;;2.20;;
42096;SDS011;27754;45.414;11.084;2022-09-14T13:25:49;6.75;;;2.55;;
42096;SDS011;27754;45.414;11.084;2022-09-14T13:28:17;6.97;;;2.72;;
42096;SDS011;27754;45.414;11.084;2022-09-14T13:30:53;10.57;;;2.80;;
42096;SDS011;27754;45.414;11.084;2022-09-14T13:33:24;8.50;;;2.60;;
42096;SDS011;27754;45.414;11.084;2022-09-14T13:35:53;6.50;;;2.33;;
42096;SDS011;27754;45.414;11.084;2022-09-14T13:38:25;6.35;;;2.30;;
42096;SDS011;27754;45.414;11.084;2022-09-14T13:41:11;6.15;;;2.35;;
42096;SDS011;27754;45.414;11.084;2022-09-14T13:43:41;6.75;;;1.80;;
42096;SDS011;27754;45.414;11.084;2022-09-14T13:46:10;6.40;;;1.95;;
42096;SDS011;27754;45.414;11.084;2022-09-14T13:48:38;9.35;;;2.35;;
42096;SDS011;27754;45.414;11.084;2022-09-14T13:51:07;6.50;;;2.33;;
42096;SDS011;27754;45.414;11.084;2022-09-14T13:53:39;7.18;;;2.90;;
42096;SDS011;27754;45.414;11.084;2022-09-14T13:56:35;10.05;;;3.35;;
42096;SDS011;27754;45.414;11.084;2022-09-14T14:01:41;8.15;;;2.70;;
42096;SDS011;27754;45.414;11.084;2022-09-14T14:04:28;7.07;;;2.45;;
42096;SDS011;27754;45.414;11.084;2022-09-14T14:09:38;6.70;;;2.20;;
42096;SDS011;27754;45.414;11.084;2022-09-14T14:12:25;5.45;;;2.50;;
42096;SDS011;27754;45.414;11.084;2022-09-14T14:14:55;4.25;;;2.50;;
42096;SDS011;27754;45.414;11.084;2022-09-14T14:17:52;7.05;;;2.50;;
42096;SDS011;27754;45.414;11.084;2022-09-14T14:23:00;5.45;;;2.70;;
42096;SDS011;27754;45.414;11.084;2022-09-14T14:25:34;4.20;;;2.15;;
42096;SDS011;27754;45.414;11.084;2022-09-14T14:30:51;7.45;;;2.50;;
42096;SDS011;27754;45.414;11.084;2022-09-14T14:33:19;6.47;;;2.25;;
42096;SDS011;27754;45.414;11.084;2022-09-14T14:35:48;8.52;;;2.80;;
42096;SDS011;27754;45.414;11.084;2022-09-14T14:38:20;4.78;;;2.10;;
42096;SDS011;27754;45.414;11.084;2022-09-14T14:40:48;7.45;;;2.80;;
42096;SDS011;27754;45.414;11.084;2022-09-14T14:43:20;8.82;;;2.30;;
42096;SDS011;27754;45.414;11.084;2022-09-14T14:45:55;6.32;;;2.10;;
42096;SDS011;27754;45.414;11.084;2022-09-14T14:48:24;9.75;;;2.65;;
42096;SDS011;27754;45.414;11.084;2022-09-14T14:50:51;5.95;;;2.53;;
42096;SDS011;27754;45.414;11.084;2022-09-14T14:53:21;8.63;;;2.78;;
42096;SDS011;27754;45.414;11.084;2022-09-14T14:55:49;6.72;;;2.50;;
42096;SDS011;27754;45.414;11.084;2022-09-14T14:58:17;6.25;;;2.38;;
42096;SDS011;27754;45.414;11.084;2022-09-14T15:00:45;6.18;;;2.65;;
42096;SDS011;27754;45.414;11.084;2022-09-14T15:03:12;6.60;;;2.30;;
42096;SDS011;27754;45.414;11.084;2022-09-14T15:05:41;8.35;;;3.00;;
42096;SDS011;27754;45.414;11.084;2022-09-14T15:08:10;8.00;;;2.88;;
42096;SDS011;27754;45.414;11.084;2022-09-14T15:10:38;6.47;;;2.78;;
42096;SDS011;27754;45.414;11.084;2022-09-14T15:13:06;7.55;;;3.58;;
42096;SDS011;27754;45.414;11.084;2022-09-14T15:15:33;7.78;;;3.35;;
42096;SDS011;27754;45.414;11.084;2022-09-14T15:18:00;8.15;;;3.22;;
42096;SDS011;27754;45.414;11.084;2022-09-14T15:20:28;9.30;;;2.92;;
42096;SDS011;27754;45.414;11.084;2022-09-14T15:22:55;11.13;;;4.70;;
42096;SDS011;27754;45.414;11.084;2022-09-14T15:25:22;11.52;;;4.45;;
42096;SDS011;27754;45.414;11.084;2022-09-14T15:27:49;7.03;;;3.85;;
42096;SDS011;27754;45.414;11.084;2022-09-14T15:30:16;9.23;;;4.55;;
42096;SDS011;27754;45.414;11.084;2022-09-14T15:32:43;8.43;;;4.32;;
42096;SDS011;27754;45.414;11.084;2022-09-14T15:35:10;12.93;;;4.07;;
42096;SDS011;27754;45.414;11.084;2022-09-14T15:37:39;11.32;;;4.95;;
42096;SDS011;27754;45.414;11.084;2022-09-14T15:40:06;9.63;;;4.10;;
42096;SDS011;27754;45.414;11.084;2022-09-14T15:42:33;8.10;;;4.13;;
42096;SDS011;27754;45.414;11.084;2022-09-14T15:45:00;17.50;;;4.78;;
42096;SDS011;27754;45.414;11.084;2022-09-14T15:47:27;6.95;;;4.93;;
42096;SDS011;27754;45.414;11.084;2022-09-14T15:50:01;11.88;;;4.28;;
42096;SDS011;27754;45.414;11.084;2022-09-14T15:52:28;12.90;;;4.40;;
42096;SDS011;27754;45.414;11.084;2022-09-14T15:54:55;10.23;;;4.40;;
42096;SDS011;27754;45.414;11.084;2022-09-14T15:57:22;7.85;;;4.70;;
42096;SDS011;27754;45.414;11.084;2022-09-14T15:59:51;15.15;;;6.22;;
42096;SDS011;27754;45.414;11.084;2022-09-14T16:02:19;9.18;;;6.03;;
42096;SDS011;27754;45.414;11.084;2022-09-14T16:04:46;11.05;;;6.38;;
42096;SDS011;27754;45.414;11.084;2022-09-14T16:07:13;9.90;;;7.05;;
42096;SDS011;27754;45.414;11.084;2022-09-14T16:09:40;13.43;;;7.35;;
42096;SDS011;27754;45.414;11.084;2022-09-14T16:12:08;13.63;;;7.22;;
42096;SDS011;27754;45.414;11.084;2022-09-14T16:14:36;14.77;;;8.20;;
42096;SDS011;27754;45.414;11.084;2022-09-14T16:17:03;13.50;;;7.78;;
42096;SDS011;27754;45.414;11.084;2022-09-14T16:19:31;11.35;;;6.57;;
42096;SDS011;27754;45.414;11.084;2022-09-14T16:21:58;11.60;;;7.53;;
42096;SDS011;27754;45.414;11.084;2022-09-14T16:24:25;10.18;;;7.18;;
42096;SDS011;27754;45.414;11.084;2022-09-14T16:26:52;12.55;;;7.10;;
42096;SDS011;27754;45.414;11.084;2022-09-14T16:29:20;9.48;;;6.80;;
42096;SDS011;27754;45.414;11.084;2022-09-14T16:31:49;12.40;;;7.32;;
42096;SDS011;27754;45.414;11.084;2022-09-14T16:34:18;12.68;;;6.35;;
42096;SDS011;27754;45.414;11.084;2022-09-14T16:36:47;9.52;;;6.82;;
42096;SDS011;27754;45.414;11.084;2022-09-14T16:39:16;12.02;;;6.35;;
42096;SDS011;27754;45.414;11.084;2022-09-14T16:41:44;13.20;;;6.75;;
42096;SDS011;27754;45.414;11.084;2022-09-14T16:44:14;8.43;;;6.47;;
42096;SDS011;27754;45.414;11.084;2022-09-14T16:46:42;14.77;;;7.68;;
42096;SDS011;27754;45.414;11.084;2022-09-14T16:49:09;11.98;;;8.13;;
42096;SDS011;27754;45.414;11.084;2022-09-14T16:51:37;14.02;;;8.77;;
42096;SDS011;27754;45.414;11.084;2022-09-14T16:54:04;14.88;;;9.77;;
42096;SDS011;27754;45.414;11.084;2022-09-14T16:56:32;17.38;;;10.80;;
42096;SDS011;27754;45.414;11.084;2022-09-14T16:59:03;17.00;;;9.88;;
42096;SDS011;27754;45.414;11.084;2022-09-14T17:01:31;14.15;;;8.27;;
42096;SDS011;27754;45.414;11.084;2022-09-14T17:04:02;13.13;;;7.70;;
42096;SDS011;27754;45.414;11.084;2022-09-14T17:06:35;11.73;;;6.38;;
42096;SDS011;27754;45.414;11.084;2022-09-14T17:09:05;13.25;;;6.65;;
42096;SDS011;27754;45.414;11.084;2022-09-14T17:11:35;9.88;;;5.72;;